Time;durP1;ratioP1;P1;durP2;ratioP2;P2;SDS_P1;SDS_P2;PMS_P1;PMS_P2;Temp;Humidity;BMP_temperature;BMP_pressure;BME280_temperature;BME280_humidity;BME280_pressure;Samples;Min_cycle;Max_cycle;Signal;HPM_P1;HPM_P2
2021/07/14 00:01:20;;;;;;;3.88;1.60;;;;;;;;;;4992942;28;20033;-75
2021/07/14 00:03:45;;;;;;;5.60;1.75;;;;;;;;;;4991217;28;20065;-75
2021/07/14 00:06:11;;;;;;;2.60;1.25;;;;;;;;;;5007523;28;20511;-75
2021/07/14 00:08:36;;;;;;;2.58;1.40;;;;;;;;;;4991057;28;20598;-76
2021/07/14 00:11:02;;;;;;;3.42;1.58;;;;;;;;;;4992737;28;20034;-76
2021/07/14 00:24:02;;;;;;;4.90;1.42;;;;;;;;;;4992538;28;20045;-76
2021/07/14 00:26:27;;;;;;;4.13;1.52;;;;;;;;;;4992316;28;20026;-77
2021/07/14 00:28:53;;;;;;;2.92;1.17;;;;;;;;;;4999663;28;20022;-77
2021/07/14 00:31:20;;;;;;;3.22;1.92;;;;;;;;;;4995137;28;20027;-76
2021/07/14 00:33:47;;;;;;;2.97;1.33;;;;;;;;;;4993777;28;20022;-76
2021/07/14 00:36:13;;;;;;;4.65;1.25;;;;;;;;;;4991597;28;20447;-76
2021/07/14 00:38:39;;;;;;;3.97;1.60;;;;;;;;;;4992060;28;20030;-76
2021/07/14 00:41:06;;;;;;;7.30;2.10;;;;;;;;;;4990607;28;20034;-76
2021/07/14 00:43:32;;;;;;;2.80;1.65;;;;;;;;;;4991613;28;20034;-76
2021/07/14 00:46:19;;;;;;;2.70;1.27;;;;;;;;;;4990448;28;20510;-76
2021/07/14 00:48:46;;;;;;;3.38;1.85;;;;;;;;;;4990182;28;20069;-76
2021/07/14 00:51:12;;;;;;;2.80;1.73;;;;;;;;;;4991863;28;20030;-76
2021/07/14 00:53:37;;;;;;;3.95;2.50;;;;;;;;;;4990220;28;20026;-76
2021/07/14 00:56:04;;;;;;;2.72;1.52;;;;;;;;;;4990417;28;20026;-76
2021/07/14 00:58:31;;;;;;;6.53;1.88;;;;;;;;;;4990931;28;20397;-77
2021/07/14 01:00:57;;;;;;;24.02;3.15;;;;;;;;;;4991348;28;20061;-76
2021/07/14 01:03:29;;;;;;;4.60;1.73;;;;;;;;;;4990477;28;20026;-76
2021/07/14 01:05:57;;;;;;;4.22;1.73;;;;;;;;;;4991965;28;20089;-76
2021/07/14 01:08:42;;;;;;;5.60;1.80;;;;;;;;;;4991430;28;20026;-76
2021/07/14 01:11:11;;;;;;;4.38;1.95;;;;;;;;;;4991559;28;20031;-76
2021/07/14 01:13:59;;;;;;;5.53;2.13;;;;;;;;;;4991297;28;20334;-76
2021/07/14 01:16:31;;;;;;;5.18;1.30;;;;;;;;;;4991415;28;20486;-76
2021/07/14 01:19:28;;;;;;;5.40;1.45;;;;;;;;;;4989819;28;20023;-76
2021/07/14 01:21:59;;;;;;;2.53;1.48;;;;;;;;;;4991295;28;20130;-76
2021/07/14 01:24:48;;;;;;;2.65;1.98;;;;;;;;;;4990299;28;20056;-76
2021/07/14 01:27:16;;;;;;;6.10;2.10;;;;;;;;;;4991482;28;20641;-76
2021/07/14 01:29:51;;;;;;;3.97;2.20;;;;;;;;;;4991246;28;20045;-77
2021/07/14 01:32:20;;;;;;;5.57;2.15;;;;;;;;;;4989878;28;20026;-76
2021/07/14 01:34:48;;;;;;;2.10;1.65;;;;;;;;;;4990643;28;20060;-76
2021/07/14 01:37:19;;;;;;;5.43;1.65;;;;;;;;;;4989615;28;20065;-76
2021/07/14 01:39:46;;;;;;;5.38;1.67;;;;;;;;;;4990531;28;20038;-76
2021/07/14 01:42:13;;;;;;;2.20;1.67;;;;;;;;;;4990922;28;20026;-76
2021/07/14 01:44:40;;;;;;;5.82;2.03;;;;;;;;;;4990785;28;20028;-77
2021/07/14 01:47:06;;;;;;;2.28;1.60;;;;;;;;;;4989628;28;20132;-77
2021/07/14 01:49:34;;;;;;;4.97;2.28;;;;;;;;;;4990951;28;20114;-77
2021/07/14 01:52:07;;;;;;;2.17;1.40;;;;;;;;;;4990832;28;20486;-76
2021/07/14 01:54:34;;;;;;;5.40;1.77;;;;;;;;;;4990570;28;20038;-76
2021/07/14 01:57:02;;;;;;;7.80;1.60;;;;;;;;;;4990675;28;20035;-76
2021/07/14 01:59:30;;;;;;;5.00;1.88;;;;;;;;;;4990363;28;20050;-77
2021/07/14 02:01:58;;;;;;;4.90;1.75;;;;;;;;;;4990502;28;20034;-76
2021/07/14 02:04:30;;;;;;;4.13;2.20;;;;;;;;;;4991092;28;20030;-76
2021/07/14 02:06:57;;;;;;;3.92;1.33;;;;;;;;;;4989414;28;20100;-76
2021/07/14 02:09:23;;;;;;;3.58;1.88;;;;;;;;;;4990287;28;20022;-77
2021/07/14 02:11:53;;;;;;;3.80;1.70;;;;;;;;;;4988912;28;20033;-75
2021/07/14 02:14:24;;;;;;;7.78;1.80;;;;;;;;;;5005450;28;20442;-77
2021/07/14 02:16:50;;;;;;;4.65;2.08;;;;;;;;;;4990440;28;20061;-75
2021/07/14 02:19:18;;;;;;;6.07;2.03;;;;;;;;;;4988570;28;20413;-75
2021/07/14 02:21:44;;;;;;;3.83;2.10;;;;;;;;;;4990443;28;20034;-75
2021/07/14 02:24:11;;;;;;;2.33;1.50;;;;;;;;;;4990146;28;20034;-74
2021/07/14 02:26:38;;;;;;;4.18;1.70;;;;;;;;;;4990015;28;20514;-75
2021/07/14 02:29:04;;;;;;;5.05;1.80;;;;;;;;;;4990012;28;20037;-74
2021/07/14 02:31:31;;;;;;;2.92;1.60;;;;;;;;;;4989923;28;20027;-74
2021/07/14 02:33:56;;;;;;;2.63;1.70;;;;;;;;;;4989675;28;20052;-75
2021/07/14 02:36:23;;;;;;;2.70;1.60;;;;;;;;;;5005077;28;20117;-75
2021/07/14 02:38:59;;;;;;;5.50;2.35;;;;;;;;;;4989791;28;20057;-75
2021/07/14 02:41:31;;;;;;;9.23;3.05;;;;;;;;;;4988740;28;20088;-76
2021/07/14 02:44:01;;;;;;;4.35;2.22;;;;;;;;;;5004729;28;20330;-76
2021/07/14 02:46:30;;;;;;;16.65;1.98;;;;;;;;;;4988410;28;20030;-76
2021/07/14 02:48:59;;;;;;;3.20;1.80;;;;;;;;;;4988172;28;20548;-76
2021/07/14 02:51:29;;;;;;;3.10;1.50;;;;;;;;;;4989670;28;20354;-75
2021/07/14 02:53:58;;;;;;;3.35;1.83;;;;;;;;;;4989533;28;20062;-75
2021/07/14 02:56:27;;;;;;;7.38;1.80;;;;;;;;;;4989709;28;20057;-76
2021/07/14 02:58:56;;;;;;;3.65;1.65;;;;;;;;;;5004295;28;20038;-75
2021/07/14 03:01:22;;;;;;;16.98;2.58;;;;;;;;;;4990211;28;20367;-76
2021/07/14 03:03:50;;;;;;;3.95;1.80;;;;;;;;;;4989717;28;20393;-76
2021/07/14 03:06:16;;;;;;;4.80;1.83;;;;;;;;;;4989775;28;20472;-77
2021/07/14 03:08:47;;;;;;;2.72;1.70;;;;;;;;;;4989585;28;20041;-77
2021/07/14 03:11:13;;;;;;;3.17;1.70;;;;;;;;;;4989646;28;20049;-76
2021/07/14 03:13:40;;;;;;;5.93;2.53;;;;;;;;;;4989884;28;20041;-75
2021/07/14 03:16:06;;;;;;;3.95;1.85;;;;;;;;;;4989670;28;20042;-75
2021/07/14 03:18:33;;;;;;;10.63;2.30;;;;;;;;;;4989566;28;20034;-75
2021/07/14 03:21:01;;;;;;;5.43;2.72;;;;;;;;;;4987956;28;20034;-76
2021/07/14 03:23:31;;;;;;;10.20;2.20;;;;;;;;;;5004586;28;20042;-76
2021/07/14 03:26:01;;;;;;;9.75;2.13;;;;;;;;;;4988349;28;20022;-75
2021/07/14 03:28:30;;;;;;;13.73;3.05;;;;;;;;;;4988491;28;20034;-76
2021/07/14 03:31:01;;;;;;;8.57;1.63;;;;;;;;;;4989624;28;20406;-77
2021/07/14 03:33:29;;;;;;;7.07;2.42;;;;;;;;;;4994540;28;20097;-77
2021/07/14 03:35:57;;;;;;;7.47;2.45;;;;;;;;;;4994527;28;20038;-76
2021/07/14 03:38:23;;;;;;;5.78;2.35;;;;;;;;;;4993364;28;20084;-75
2021/07/14 03:40:51;;;;;;;10.85;2.10;;;;;;;;;;4991596;28;20026;-76
2021/07/14 03:43:17;;;;;;;6.05;2.17;;;;;;;;;;4993057;28;20486;-76
2021/07/14 03:45:44;;;;;;;3.53;1.90;;;;;;;;;;4993008;28;20030;-76
2021/07/14 03:48:16;;;;;;;3.85;1.60;;;;;;;;;;4993184;28;20404;-77
2021/07/14 03:50:43;;;;;;;10.00;2.05;;;;;;;;;;4993397;28;20390;-76
2021/07/14 03:53:10;;;;;;;2.45;1.70;;;;;;;;;;4993025;28;20038;-77
2021/07/14 03:55:37;;;;;;;8.45;2.22;;;;;;;;;;4991817;28;20041;-77
2021/07/14 03:58:02;;;;;;;6.93;1.80;;;;;;;;;;4992773;28;20065;-79
2021/07/14 04:00:29;;;;;;;4.40;2.13;;;;;;;;;;4992727;28;20058;-76
2021/07/14 04:02:56;;;;;;;7.38;1.90;;;;;;;;;;5007577;28;20137;-76
2021/07/14 04:05:21;;;;;;;9.43;2.10;;;;;;;;;;4991538;28;20489;-76
2021/07/14 04:07:49;;;;;;;2.53;1.73;;;;;;;;;;4992336;28;20053;-77
2021/07/14 04:10:14;;;;;;;6.07;2.28;;;;;;;;;;4992593;28;20462;-77
2021/07/14 04:12:41;;;;;;;7.65;2.20;;;;;;;;;;4992675;28;20030;-77
2021/07/14 04:15:07;;;;;;;12.02;3.17;;;;;;;;;;4992324;28;20074;-77
2021/07/14 04:17:33;;;;;;;7.95;2.97;;;;;;;;;;4991082;28;20101;-77
2021/07/14 04:19:59;;;;;;;5.20;2.30;;;;;;;;;;4992386;28;20467;-76
2021/07/14 04:22:25;;;;;;;9.13;2.97;;;;;;;;;;4992304;28;20084;-77
2021/07/14 04:24:51;;;;;;;12.13;2.97;;;;;;;;;;4992171;28;20026;-77
2021/07/14 04:27:16;;;;;;;4.18;2.55;;;;;;;;;;4992380;28;20053;-77
2021/07/14 04:29:42;;;;;;;8.23;2.53;;;;;;;;;;4992480;28;20053;-76
2021/07/14 04:32:07;;;;;;;7.88;4.05;;;;;;;;;;4992260;28;20030;-76
2021/07/14 04:34:33;;;;;;;7.13;3.65;;;;;;;;;;4990935;28;20026;-77
2021/07/14 04:36:58;;;;;;;10.82;3.35;;;;;;;;;;4990668;28;20026;-77
2021/07/14 04:39:24;;;;;;;13.55;3.85;;;;;;;;;;4992133;28;20106;-77
2021/07/14 04:41:49;;;;;;;10.48;4.13;;;;;;;;;;4990404;28;20398;-77
2021/07/14 04:44:29;;;;;;;8.00;4.40;;;;;;;;;;4992412;28;20454;-76
2021/07/14 04:46:55;;;;;;;8.45;3.20;;;;;;;;;;4991700;28;20042;-77
2021/07/14 04:49:20;;;;;;;12.00;4.45;;;;;;;;;;4990527;28;20437;-76
2021/07/14 04:51:46;;;;;;;9.63;4.00;;;;;;;;;;4991674;28;20109;-75
2021/07/14 04:54:11;;;;;;;9.55;3.55;;;;;;;;;;4990264;28;20034;-76
2021/07/14 04:56:36;;;;;;;8.35;3.60;;;;;;;;;;4991988;28;20089;-77
2021/07/14 04:59:02;;;;;;;5.78;3.50;;;;;;;;;;4991241;28;20409;-77
2021/07/14 05:01:28;;;;;;;6.75;4.22;;;;;;;;;;4991348;28;20462;-77
2021/07/14 05:03:53;;;;;;;6.28;3.70;;;;;;;;;;4990097;28;20118;-75
2021/07/14 05:06:19;;;;;;;5.28;3.72;;;;;;;;;;4991378;28;20027;-75
2021/07/14 05:08:45;;;;;;;9.85;4.18;;;;;;;;;;5006472;28;20514;-75
2021/07/14 05:11:12;;;;;;;11.07;4.38;;;;;;;;;;4990124;28;20026;-75
2021/07/14 05:13:38;;;;;;;6.45;3.53;;;;;;;;;;4989882;28;20030;-75
2021/07/14 05:16:04;;;;;;;11.02;3.83;;;;;;;;;;4991178;28;20381;-76
2021/07/14 05:18:29;;;;;;;5.97;3.25;;;;;;;;;;5006065;28;20026;-76
2021/07/14 05:20:55;;;;;;;10.38;4.00;;;;;;;;;;4989325;28;20149;-74
2021/07/14 05:23:20;;;;;;;10.38;3.22;;;;;;;;;;4990935;28;20030;-75
2021/07/14 05:25:46;;;;;;;6.30;3.03;;;;;;;;;;4989908;28;20050;-75
2021/07/14 05:28:11;;;;;;;5.28;3.25;;;;;;;;;;4989337;28;20172;-75
2021/07/14 05:30:39;;;;;;;3.92;3.53;;;;;;;;;;5005836;28;20034;-76
2021/07/14 05:33:05;;;;;;;8.65;3.35;;;;;;;;;;4989407;28;20065;-75
2021/07/14 05:35:31;;;;;;;12.50;4.28;;;;;;;;;;4989079;28;20078;-75
2021/07/14 05:37:57;;;;;;;8.00;3.08;;;;;;;;;;4990543;28;20478;-78
2021/07/14 05:40:23;;;;;;;4.68;2.85;;;;;;;;;;4989643;28;20033;-75
2021/07/14 05:42:50;;;;;;;4.50;3.00;;;;;;;;;;4989441;28;20034;-76
2021/07/14 05:45:16;;;;;;;8.35;3.55;;;;;;;;;;4990948;28;20038;-77
2021/07/14 05:47:42;;;;;;;8.05;4.25;;;;;;;;;;4990684;28;20053;-76
2021/07/14 05:50:10;;;;;;;5.88;3.60;;;;;;;;;;4990225;28;20478;-75
2021/07/14 05:52:35;;;;;;;8.30;5.55;;;;;;;;;;5005827;28;20037;-75
2021/07/14 05:55:01;;;;;;;4.63;3.47;;;;;;;;;;4989508;28;20539;-76
2021/07/14 05:57:26;;;;;;;5.40;3.75;;;;;;;;;;4990889;28;20045;-76
2021/07/14 05:59:52;;;;;;;6.70;3.72;;;;;;;;;;4988037;28;20434;-75
2021/07/14 06:02:17;;;;;;;8.15;4.63;;;;;;;;;;4990555;28;20038;-75
2021/07/14 06:04:43;;;;;;;6.90;3.70;;;;;;;;;;4991211;28;20232;-76
2021/07/14 06:07:08;;;;;;;9.10;3.63;;;;;;;;;;4990423;28;20037;-76
2021/07/14 06:09:34;;;;;;;6.18;3.33;;;;;;;;;;4990312;28;20114;-76
2021/07/14 06:12:00;;;;;;;7.53;4.30;;;;;;;;;;4988221;28;20073;-76
2021/07/14 06:14:25;;;;;;;8.30;3.70;;;;;;;;;;4990029;28;20670;-76
2021/07/14 06:16:55;;;;;;;5.95;4.50;;;;;;;;;;5004741;28;20113;-76
2021/07/14 06:19:21;;;;;;;7.05;3.95;;;;;;;;;;5000773;28;20129;-76
2021/07/14 06:21:46;;;;;;;19.00;6.68;;;;;;;;;;4987033;28;20117;-77
2021/07/14 06:24:12;;;;;;;13.07;4.65;;;;;;;;;;4988069;28;20121;-77
2021/07/14 06:26:39;;;;;;;9.30;4.05;;;;;;;;;;4999849;28;20429;-75
2021/07/14 06:29:04;;;;;;;82.10;18.48;;;;;;;;;;5009340;28;20066;-74
2021/07/14 06:31:32;;;;;;;93.32;18.95;;;;;;;;;;4990034;28;20066;-75
2021/07/14 06:34:01;;;;;;;106.32;22.77;;;;;;;;;;4986488;28;20045;-75
2021/07/14 06:36:27;;;;;;;42.20;9.98;;;;;;;;;;5002026;28;20034;-74
2021/07/14 06:39:01;;;;;;;141.95;27.92;;;;;;;;;;4998622;28;20033;-75
2021/07/14 06:41:27;;;;;;;31.08;8.70;;;;;;;;;;5002314;28;20430;-75
2021/07/14 06:43:54;;;;;;;14.75;4.63;;;;;;;;;;4987020;28;20026;-75
2021/07/14 06:46:20;;;;;;;10.13;4.47;;;;;;;;;;4984081;28;20029;-75
2021/07/14 06:48:47;;;;;;;8.68;3.85;;;;;;;;;;4999727;28;20042;-76
2021/07/14 06:51:13;;;;;;;4.28;2.97;;;;;;;;;;4980354;28;20034;-77
2021/07/14 06:56:06;;;;;;;7.30;4.20;;;;;;;;;;4986782;28;20830;-75
2021/07/14 06:58:36;;;;;;;5.95;3.33;;;;;;;;;;4986169;28;20407;-74
2021/07/14 07:01:04;;;;;;;8.13;4.68;;;;;;;;;;4985087;28;20519;-76
2021/07/14 07:03:33;;;;;;;6.38;3.78;;;;;;;;;;4983036;28;20066;-74
2021/07/14 07:06:03;;;;;;;7.45;4.00;;;;;;;;;;4985999;28;20080;-76
2021/07/14 07:08:29;;;;;;;10.27;4.55;;;;;;;;;;4971481;28;20407;-75
2021/07/14 07:10:55;;;;;;;6.47;3.42;;;;;;;;;;4989897;28;20542;-74
2021/07/14 07:13:24;;;;;;;7.20;3.28;;;;;;;;;;4989020;28;20376;-75
2021/07/14 07:15:53;;;;;;;12.80;4.10;;;;;;;;;;4990775;28;20038;-75
2021/07/14 07:18:21;;;;;;;6.63;3.33;;;;;;;;;;4981362;28;20038;-75
2021/07/14 07:20:48;;;;;;;4.97;3.47;;;;;;;;;;4999193;28;20492;-77
2021/07/14 07:23:15;;;;;;;8.82;4.20;;;;;;;;;;4980502;28;20070;-75
2021/07/14 07:25:43;;;;;;;8.02;3.97;;;;;;;;;;4986367;28;20092;-74
2021/07/14 07:28:20;;;;;;;6.47;3.30;;;;;;;;;;5015818;28;20030;-75
2021/07/14 07:30:46;;;;;;;19.92;6.32;;;;;;;;;;5016216;28;20209;-75
2021/07/14 07:33:12;;;;;;;17.88;4.53;;;;;;;;;;4985499;28;20192;-74
2021/07/14 07:35:38;;;;;;;9.43;3.78;;;;;;;;;;4981653;28;20417;-77
2021/07/14 07:38:05;;;;;;;8.70;4.22;;;;;;;;;;5011409;28;20068;-77
2021/07/14 07:40:31;;;;;;;8.60;4.78;;;;;;;;;;4982533;28;20053;-77
2021/07/14 07:43:00;;;;;;;8.60;3.45;;;;;;;;;;4984667;28;20495;-76
2021/07/14 07:45:27;;;;;;;10.05;3.50;;;;;;;;;;4984724;28;20113;-77
2021/07/14 07:47:53;;;;;;;9.75;4.57;;;;;;;;;;4982450;28;20053;-78
2021/07/14 07:50:19;;;;;;;11.02;5.20;;;;;;;;;;4998021;28;20225;-75
2021/07/14 07:52:45;;;;;;;6.93;3.63;;;;;;;;;;4973173;28;20867;-75
2021/07/14 07:55:14;;;;;;;8.02;3.53;;;;;;;;;;4978763;28;20030;-75
2021/07/14 07:57:42;;;;;;;4.68;3.20;;;;;;;;;;4980744;28;20092;-75
2021/07/14 08:00:19;;;;;;;7.95;3.70;;;;;;;;;;4993627;28;20041;-76
2021/07/14 08:02:55;;;;;;;3.30;2.10;;;;;;;;;;4982634;28;20046;-76
2021/07/14 08:05:21;;;;;;;5.88;2.85;;;;;;;;;;5013982;28;20534;-76
2021/07/14 08:07:47;;;;;;;9.80;3.20;;;;;;;;;;4980666;28;20038;-75
2021/07/14 08:10:16;;;;;;;9.27;3.60;;;;;;;;;;4998408;28;20027;-75
2021/07/14 08:12:44;;;;;;;16.17;6.75;;;;;;;;;;4985515;28;20027;-76
2021/07/14 08:15:11;;;;;;;16.13;5.90;;;;;;;;;;4983216;28;20510;-75
2021/07/14 08:17:38;;;;;;;5.40;3.08;;;;;;;;;;4981624;28;20542;-76
2021/07/14 08:20:09;;;;;;;15.98;5.93;;;;;;;;;;4981249;28;20474;-76
2021/07/14 08:22:35;;;;;;;6.17;3.83;;;;;;;;;;4978824;28;20038;-76
2021/07/14 08:25:08;;;;;;;5.25;2.47;;;;;;;;;;4979371;28;20283;-78
2021/07/14 08:27:36;;;;;;;5.53;2.75;;;;;;;;;;5009475;28;20457;-75
2021/07/14 08:30:04;;;;;;;7.75;3.92;;;;;;;;;;4981217;28;20529;-76
2021/07/14 08:32:32;;;;;;;5.10;3.03;;;;;;;;;;4983768;28;20034;-77
2021/07/14 08:34:59;;;;;;;6.22;2.85;;;;;;;;;;4986249;28;20422;-76
2021/07/14 08:37:26;;;;;;;6.65;3.30;;;;;;;;;;4981781;28;20138;-76
2021/07/14 08:39:56;;;;;;;8.45;3.05;;;;;;;;;;4983030;28;20057;-77
2021/07/14 08:42:23;;;;;;;5.43;3.88;;;;;;;;;;4983739;28;20041;-76
2021/07/14 08:44:53;;;;;;;8.07;3.22;;;;;;;;;;4980385;28;20030;-76
2021/07/14 08:47:20;;;;;;;8.48;4.03;;;;;;;;;;4980777;28;20045;-75
2021/07/14 08:49:50;;;;;;;6.60;4.00;;;;;;;;;;4980952;28;20185;-76
2021/07/14 08:52:17;;;;;;;11.13;3.78;;;;;;;;;;4986278;28;20140;-76
2021/07/14 08:54:43;;;;;;;6.45;3.20;;;;;;;;;;4984063;28;20149;-76
2021/07/14 08:57:12;;;;;;;7.32;3.58;;;;;;;;;;4979129;28;20101;-77
2021/07/14 08:59:39;;;;;;;6.43;3.05;;;;;;;;;;4981484;28;20084;-76
2021/07/14 09:02:06;;;;;;;9.68;3.35;;;;;;;;;;4998570;28;20406;-80
2021/07/14 09:04:32;;;;;;;12.10;7.22;;;;;;;;;;5015499;28;20034;-75
2021/07/14 09:06:58;;;;;;;9.15;4.50;;;;;;;;;;4979249;28;20029;-77
2021/07/14 09:09:23;;;;;;;5.88;5.22;;;;;;;;;;4982396;28;20369;-75
2021/07/14 09:11:58;;;;;;;5.63;3.05;;;;;;;;;;4999284;28;20069;-76
2021/07/14 09:14:35;;;;;;;7.85;2.40;;;;;;;;;;4983863;28;20038;-77
2021/07/14 09:17:22;;;;;;;3.92;3.13;;;;;;;;;;4997050;28;20050;-76
2021/07/14 09:19:49;;;;;;;7.93;3.33;;;;;;;;;;4987006;28;20034;-75
2021/07/14 09:22:32;;;;;;;8.55;2.78;;;;;;;;;;4983826;28;20138;-76
2021/07/14 09:24:58;;;;;;;4.60;2.85;;;;;;;;;;4983966;28;20042;-76
2021/07/14 09:27:35;;;;;;;5.32;3.95;;;;;;;;;;4996601;28;20030;-76
2021/07/14 09:30:07;;;;;;;5.78;2.47;;;;;;;;;;4987227;28;20485;-76
2021/07/14 09:33:09;;;;;;;9.35;3.05;;;;;;;;;;5014455;28;20022;-76
2021/07/14 09:35:42;;;;;;;4.38;2.78;;;;;;;;;;4971516;28;20097;-75
2021/07/14 09:38:36;;;;;;;6.40;3.13;;;;;;;;;;4983992;28;20113;-76
2021/07/14 09:41:08;;;;;;;4.00;2.70;;;;;;;;;;4995271;28;20038;-77
2021/07/14 09:43:37;;;;;;;8.35;2.70;;;;;;;;;;4983886;28;20443;-75
2021/07/14 09:46:06;;;;;;;6.22;2.95;;;;;;;;;;4997877;28;20022;-76
2021/07/14 09:48:43;;;;;;;13.98;3.70;;;;;;;;;;4984191;28;20033;-76
2021/07/14 09:51:13;;;;;;;6.97;3.47;;;;;;;;;;4987470;28;20108;-75
2021/07/14 09:53:50;;;;;;;7.75;3.38;;;;;;;;;;5013825;28;20050;-76
2021/07/14 09:56:20;;;;;;;5.78;3.28;;;;;;;;;;4998409;28;20197;-76
2021/07/14 09:58:47;;;;;;;7.18;3.17;;;;;;;;;;4984318;28;20041;-74
2021/07/14 10:01:16;;;;;;;7.68;3.08;;;;;;;;;;4984145;28;20046;-76
2021/07/14 10:03:52;;;;;;;6.82;2.67;;;;;;;;;;4994949;28;20022;-75
2021/07/14 10:06:24;;;;;;;3.05;2.60;;;;;;;;;;4981073;28;20595;-78
2021/07/14 10:08:52;;;;;;;4.68;2.55;;;;;;;;;;4981975;28;20561;-74
2021/07/14 10:11:26;;;;;;;4.80;2.97;;;;;;;;;;4981713;28;20373;-79
2021/07/14 10:14:00;;;;;;;4.18;2.60;;;;;;;;;;4982392;28;20140;-74
2021/07/14 10:16:35;;;;;;;3.47;2.67;;;;;;;;;;4980471;28;20140;-76
2021/07/14 10:19:02;;;;;;;2.90;1.92;;;;;;;;;;4998578;28;20128;-76
2021/07/14 10:21:29;;;;;;;3.80;2.15;;;;;;;;;;5000852;28;20038;-76
2021/07/14 10:23:55;;;;;;;5.88;2.35;;;;;;;;;;4998982;28;20130;-74
2021/07/14 10:26:21;;;;;;;4.93;2.25;;;;;;;;;;4982689;28;20371;-76
2021/07/14 10:28:49;;;;;;;5.20;2.03;;;;;;;;;;4981443;28;20130;-75
2021/07/14 10:31:20;;;;;;;3.78;2.08;;;;;;;;;;4997450;28;20562;-78
2021/07/14 10:33:46;;;;;;;4.28;2.47;;;;;;;;;;4998720;28;20046;-75
2021/07/14 10:36:14;;;;;;;7.45;2.10;;;;;;;;;;4982832;28;20037;-76
2021/07/14 10:38:48;;;;;;;4.65;2.30;;;;;;;;;;4983760;28;20034;-76
2021/07/14 10:41:15;;;;;;;2.58;1.98;;;;;;;;;;4982292;28;20079;-75
2021/07/14 10:43:44;;;;;;;14.60;8.43;;;;;;;;;;4997771;28;20038;-77
2021/07/14 10:46:11;;;;;;;3.92;2.67;;;;;;;;;;4979893;28;20038;-75
2021/07/14 10:48:40;;;;;;;12.20;4.93;;;;;;;;;;4992448;28;20046;-75
2021/07/14 10:51:06;;;;;;;6.03;3.05;;;;;;;;;;4983956;28;20298;-75
2021/07/14 10:53:33;;;;;;;5.38;3.05;;;;;;;;;;4982949;28;20033;-77
2021/07/14 10:56:07;;;;;;;5.38;3.28;;;;;;;;;;4983439;28;20145;-78
2021/07/14 10:58:34;;;;;;;4.70;2.85;;;;;;;;;;4999145;28;20034;-75
2021/07/14 11:00:59;;;;;;;3.80;2.60;;;;;;;;;;4982962;28;20050;-77
2021/07/14 11:03:37;;;;;;;6.22;2.88;;;;;;;;;;4982693;28;20080;-76
2021/07/14 11:06:08;;;;;;;5.43;2.88;;;;;;;;;;4984562;28;20018;-77
2021/07/14 11:08:49;;;;;;;5.18;2.65;;;;;;;;;;4981083;28;20034;-76
2021/07/14 11:11:20;;;;;;;3.40;2.17;;;;;;;;;;4981394;28;20027;-75
2021/07/14 11:14:10;;;;;;;4.20;2.03;;;;;;;;;;4983926;28;20537;-76
2021/07/14 11:16:37;;;;;;;4.82;2.50;;;;;;;;;;4981722;28;20042;-77
2021/07/14 11:19:17;;;;;;;4.05;2.50;;;;;;;;;;4985846;28;20119;-74
2021/07/14 11:22:03;;;;;;;3.60;2.10;;;;;;;;;;5015665;28;20049;-78
2021/07/14 11:24:48;;;;;;;5.72;2.63;;;;;;;;;;5022115;28;20443;-74
2021/07/14 11:27:26;;;;;;;4.35;2.60;;;;;;;;;;4989321;28;20418;-77
2021/07/14 11:29:56;;;;;;;4.60;2.47;;;;;;;;;;4999092;28;20122;-76
2021/07/14 11:32:43;;;;;;;35.10;15.10;;;;;;;;;;5020978;28;20026;-78
2021/07/14 11:35:20;;;;;;;7.50;3.72;;;;;;;;;;5003859;28;20073;-77
2021/07/14 11:38:00;;;;;;;4.00;2.40;;;;;;;;;;4989939;28;20100;-77
2021/07/14 11:40:25;;;;;;;6.63;2.80;;;;;;;;;;4990165;28;20018;-77
2021/07/14 11:42:58;;;;;;;3.55;2.38;;;;;;;;;;5021198;28;20033;-76
2021/07/14 11:45:32;;;;;;;12.70;8.43;;;;;;;;;;4988355;28;20066;-76
2021/07/14 11:48:28;;;;;;;3.55;2.90;;;;;;;;;;5021957;28;20113;-78
2021/07/14 11:50:57;;;;;;;5.70;2.80;;;;;;;;;;5021825;28;20030;-76
2021/07/14 11:53:36;;;;;;;4.85;2.63;;;;;;;;;;5004674;28;20391;-78
2021/07/14 11:56:28;;;;;;;6.22;3.67;;;;;;;;;;4995499;28;20154;-78
2021/07/14 11:59:07;;;;;;;10.75;3.17;;;;;;;;;;4993517;28;20026;-77
2021/07/14 12:01:32;;;;;;;6.03;2.88;;;;;;;;;;4993767;28;20050;-77
2021/07/14 12:04:01;;;;;;;2.80;2.60;;;;;;;;;;5025082;28;20026;-79
2021/07/14 12:07:02;;;;;;;6.85;3.95;;;;;;;;;;5025445;28;20034;-76
2021/07/14 12:09:31;;;;;;;10.45;4.22;;;;;;;;;;4993121;28;20433;-76
2021/07/14 12:12:08;;;;;;;4.15;2.40;;;;;;;;;;4991412;28;20022;-76
2021/07/14 12:14:39;;;;;;;4.78;2.80;;;;;;;;;;5023548;28;20038;-76
2021/07/14 12:17:15;;;;;;;5.85;3.38;;;;;;;;;;5024585;28;20027;-75
2021/07/14 12:19:45;;;;;;;3.10;2.55;;;;;;;;;;4990724;28;20038;-77
2021/07/14 12:22:24;;;;;;;3.13;2.22;;;;;;;;;;5020866;28;20101;-76
2021/07/14 12:24:54;;;;;;;6.13;3.08;;;;;;;;;;5023564;28;20121;-75
2021/07/14 12:27:27;;;;;;;7.60;2.50;;;;;;;;;;5002726;28;20046;-76
2021/07/14 12:29:54;;;;;;;5.63;2.40;;;;;;;;;;4994555;28;20545;-75
2021/07/14 12:32:32;;;;;;;5.50;2.25;;;;;;;;;;4993787;28;20394;-75
2021/07/14 12:34:58;;;;;;;4.03;2.42;;;;;;;;;;5007005;28;20039;-76
2021/07/14 12:37:24;;;;;;;5.00;3.10;;;;;;;;;;4990294;28;20018;-76
2021/07/14 12:39:49;;;;;;;4.00;2.63;;;;;;;;;;5005202;28;20339;-76
2021/07/14 12:42:20;;;;;;;3.80;2.60;;;;;;;;;;5004569;28;20489;-74
2021/07/14 12:44:48;;;;;;;;;;;;;;;;;;5006268;28;20479;-76
2021/07/14 12:47:23;;;;;;;4.72;2.22;;;;;;;;;;4990576;28;19910;-74
2021/07/14 12:49:52;;;;;;;5.15;2.83;;;;;;;;;;4995076;28;20418;-75
2021/07/14 12:52:23;;;;;;;3.63;1.83;;;;;;;;;;5020700;28;20030;-76
2021/07/14 12:54:58;;;;;;;6.13;2.58;;;;;;;;;;4987818;28;20053;-76
2021/07/14 12:57:47;;;;;;;2.88;2.10;;;;;;;;;;4988946;28;20085;-75
2021/07/14 13:00:16;;;;;;;5.53;2.40;;;;;;;;;;5019280;28;20042;-75
2021/07/14 13:03:13;;;;;;;4.30;2.70;;;;;;;;;;5008183;28;20022;-78
2021/07/14 13:05:41;;;;;;;6.40;2.50;;;;;;;;;;5040614;28;20180;-75
2021/07/14 13:08:22;;;;;;;3.15;2.50;;;;;;;;;;5004725;28;20029;-74
2021/07/14 13:10:57;;;;;;;6.68;2.58;;;;;;;;;;4987168;28;20026;-75
2021/07/14 13:13:25;;;;;;;4.28;2.72;;;;;;;;;;4988194;28;20419;-75
2021/07/14 13:15:54;;;;;;;5.40;2.63;;;;;;;;;;4988450;28;20546;-75
2021/07/14 13:18:20;;;;;;;6.47;2.47;;;;;;;;;;4988401;28;20062;-75
2021/07/14 13:21:11;;;;;;;4.20;2.15;;;;;;;;;;4989269;28;20050;-75
2021/07/14 13:23:38;;;;;;;3.90;2.35;;;;;;;;;;4989194;28;20041;-76
2021/07/14 13:26:05;;;;;;;2.63;2.13;;;;;;;;;;4989702;28;20070;-76
2021/07/14 13:28:36;;;;;;;4.35;2.10;;;;;;;;;;5004638;28;20113;-75
2021/07/14 13:31:07;;;;;;;5.25;2.45;;;;;;;;;;5003481;28;20030;-75
2021/07/14 13:33:48;;;;;;;4.35;2.17;;;;;;;;;;4983814;28;20026;-76
2021/07/14 13:36:19;;;;;;;4.05;3.05;;;;;;;;;;4976816;28;20034;-75
2021/07/14 13:38:48;;;;;;;10.23;4.60;;;;;;;;;;5012880;28;20046;-77
2021/07/14 13:41:18;;;;;;;4.93;2.28;;;;;;;;;;4987679;28;20117;-74
2021/07/14 13:43:57;;;;;;;6.20;2.70;;;;;;;;;;5018933;28;20034;-76
2021/07/14 13:46:24;;;;;;;5.20;2.57;;;;;;;;;;5018906;28;20022;-75
2021/07/14 13:49:10;;;;;;;4.97;2.55;;;;;;;;;;5001129;28;20026;-76
2021/07/14 13:51:48;;;;;;;3.60;2.70;;;;;;;;;;5002067;28;20038;-76
2021/07/14 13:54:20;;;;;;;3.88;2.22;;;;;;;;;;5019181;28;20034;-76
2021/07/14 13:56:56;;;;;;;3.40;1.90;;;;;;;;;;5019484;28;20030;-74
2021/07/14 13:59:33;;;;;;;7.55;2.33;;;;;;;;;;4987326;28;20128;-76
2021/07/14 14:02:03;;;;;;;3.70;2.13;;;;;;;;;;4947574;28;20403;-76
2021/07/14 14:04:48;;;;;;;3.40;1.88;;;;;;;;;;4950595;28;20027;-75
2021/07/14 14:07:17;;;;;;;2.80;2.00;;;;;;;;;;4950449;28;20422;-76
2021/07/14 14:09:53;;;;;;;8.90;2.40;;;;;;;;;;4947504;28;20146;-75
2021/07/14 14:12:39;;;;;;;7.18;2.17;;;;;;;;;;4948544;28;20070;-75
2021/07/14 14:15:20;;;;;;;5.18;2.08;;;;;;;;;;4951588;28;20170;-75
2021/07/14 14:17:50;;;;;;;5.15;2.15;;;;;;;;;;4946263;28;20094;-77
2021/07/14 14:20:25;;;;;;;3.08;2.10;;;;;;;;;;4947468;28;20028;-76
2021/07/14 14:22:54;;;;;;;4.97;2.10;;;;;;;;;;4978693;28;20038;-80
2021/07/14 14:25:29;;;;;;;3.13;2.10;;;;;;;;;;4942394;28;20027;-75
2021/07/14 14:28:04;;;;;;;3.33;1.80;;;;;;;;;;4946792;29;20038;-77
2021/07/14 14:30:32;;;;;;;7.40;2.53;;;;;;;;;;4943300;28;20440;-76
2021/07/14 14:33:02;;;;;;;4.70;2.55;;;;;;;;;;4968417;28;20035;-77
2021/07/14 14:35:30;;;;;;;4.78;1.95;;;;;;;;;;4947808;28;20114;-76
2021/07/14 14:37:56;;;;;;;2.72;1.88;;;;;;;;;;4948855;28;20430;-76
2021/07/14 14:40:23;;;;;;;2.80;2.05;;;;;;;;;;4942398;28;20085;-76
2021/07/14 14:42:51;;;;;;;3.08;2.25;;;;;;;;;;4944913;28;20027;-76
2021/07/14 14:45:17;;;;;;;4.30;2.20;;;;;;;;;;4942753;28;20360;-74
2021/07/14 14:47:43;;;;;;;2.25;1.92;;;;;;;;;;4948421;28;20031;-75
2021/07/14 14:50:14;;;;;;;2.30;1.70;;;;;;;;;;4948459;28;20034;-75
2021/07/14 14:52:40;;;;;;;4.65;3.22;;;;;;;;;;4943110;28;20552;-76
2021/07/14 14:55:06;;;;;;;5.25;2.58;;;;;;;;;;4949218;28;20122;-76
2021/07/14 14:57:32;;;;;;;4.50;2.83;;;;;;;;;;4941816;28;20047;-76
2021/07/14 14:59:57;;;;;;;8.63;2.75;;;;;;;;;;4956439;28;20082;-75
2021/07/14 15:02:23;;;;;;;4.93;1.80;;;;;;;;;;4986608;28;20549;-76
2021/07/14 15:04:50;;;;;;;4.53;2.47;;;;;;;;;;4978960;28;20527;-76
2021/07/14 15:07:15;;;;;;;11.05;2.45;;;;;;;;;;4984028;28;20121;-75
2021/07/14 15:09:43;;;;;;;3.22;1.75;;;;;;;;;;4987168;28;20048;-74